sensor_id;sensor_type;location;lat;lon;timestamp;temperature;humidity
10472;DHT22;5283;48.876;8.962;2023-10-31T00:02:10;11.30;99.90
10472;DHT22;5283;48.876;8.962;2023-10-31T00:04:37;11.30;99.90
10472;DHT22;5283;48.876;8.962;2023-10-31T00:07:04;11.30;99.90
10472;DHT22;5283;48.876;8.962;2023-10-31T00:09:31;11.20;99.90
10472;DHT22;5283;48.876;8.962;2023-10-31T00:11:58;11.30;99.90
10472;DHT22;5283;48.876;8.962;2023-10-31T00:14:25;11.30;99.90
10472;DHT22;5283;48.876;8.962;2023-10-31T00:16:52;11.20;99.90
10472;DHT22;5283;48.876;8.962;2023-10-31T00:19:19;11.20;99.90
10472;DHT22;5283;48.876;8.962;2023-10-31T00:21:46;11.20;99.90
10472;DHT22;5283;48.876;8.962;2023-10-31T00:24:12;11.20;99.90
10472;DHT22;5283;48.876;8.962;2023-10-31T00:26:39;11.10;99.90
10472;DHT22;5283;48.876;8.962;2023-10-31T00:29:06;11.00;99.90
10472;DHT22;5283;48.876;8.962;2023-10-31T00:31:33;11.00;99.90
10472;DHT22;5283;48.876;8.962;2023-10-31T00:34:02;10.90;99.90
10472;DHT22;5283;48.876;8.962;2023-10-31T00:36:29;10.90;99.90
10472;DHT22;5283;48.876;8.962;2023-10-31T00:38:55;10.90;99.90
10472;DHT22;5283;48.876;8.962;2023-10-31T00:41:22;11.00;99.90
10472;DHT22;5283;48.876;8.962;2023-10-31T00:43:49;10.90;99.90
10472;DHT22;5283;48.876;8.962;2023-10-31T00:46:16;10.90;99.90
10472;DHT22;5283;48.876;8.962;2023-10-31T00:48:42;10.90;99.90
10472;DHT22;5283;48.876;8.962;2023-10-31T00:51:09;10.90;99.90
10472;DHT22;5283;48.876;8.962;2023-10-31T00:53:36;10.90;99.90
10472;DHT22;5283;48.876;8.962;2023-10-31T00:56:03;10.90;99.90
10472;DHT22;5283;48.876;8.962;2023-10-31T00:58:29;10.80;99.90
10472;DHT22;5283;48.876;8.962;2023-10-31T01:00:56;10.80;99.90
10472;DHT22;5283;48.876;8.962;2023-10-31T01:03:23;10.80;99.90
10472;DHT22;5283;48.876;8.962;2023-10-31T01:05:50;10.80;99.90
10472;DHT22;5283;48.876;8.962;2023-10-31T01:08:16;10.70;99.90
10472;DHT22;5283;48.876;8.962;2023-10-31T01:10:43;10.70;99.90
10472;DHT22;5283;48.876;8.962;2023-10-31T01:13:10;10.70;99.90
10472;DHT22;5283;48.876;8.962;2023-10-31T01:15:36;10.50;99.90
10472;DHT22;5283;48.876;8.962;2023-10-31T01:18:03;10.40;99.90
10472;DHT22;5283;48.876;8.962;2023-10-31T01:20:30;10.20;99.90
10472;DHT22;5283;48.876;8.962;2023-10-31T01:22:57;10.00;99.90
10472;DHT22;5283;48.876;8.962;2023-10-31T01:25:24;9.80;99.90
10472;DHT22;5283;48.876;8.962;2023-10-31T01:27:51;9.70;99.90
10472;DHT22;5283;48.876;8.962;2023-10-31T01:30:18;9.50;99.90
10472;DHT22;5283;48.876;8.962;2023-10-31T01:32:45;9.40;99.90
10472;DHT22;5283;48.876;8.962;2023-10-31T01:35:12;9.30;99.90
10472;DHT22;5283;48.876;8.962;2023-10-31T01:37:38;9.20;99.90
10472;DHT22;5283;48.876;8.962;2023-10-31T01:40:05;9.00;99.90
10472;DHT22;5283;48.876;8.962;2023-10-31T01:42:34;9.00;99.90
10472;DHT22;5283;48.876;8.962;2023-10-31T01:45:00;9.10;99.90
10472;DHT22;5283;48.876;8.962;2023-10-31T01:47:27;9.30;99.90
10472;DHT22;5283;48.876;8.962;2023-10-31T01:49:54;9.50;99.90
10472;DHT22;5283;48.876;8.962;2023-10-31T01:52:21;9.60;99.90
10472;DHT22;5283;48.876;8.962;2023-10-31T01:54:49;9.60;99.90
10472;DHT22;5283;48.876;8.962;2023-10-31T01:57:16;9.60;99.90
10472;DHT22;5283;48.876;8.962;2023-10-31T01:59:45;9.70;99.90
10472;DHT22;5283;48.876;8.962;2023-10-31T02:02:12;9.60;99.90
10472;DHT22;5283;48.876;8.962;2023-10-31T02:04:38;9.70;99.90
10472;DHT22;5283;48.876;8.962;2023-10-31T02:07:05;9.70;99.90
10472;DHT22;5283;48.876;8.962;2023-10-31T02:09:32;9.70;99.90
10472;DHT22;5283;48.876;8.962;2023-10-31T02:11:59;9.70;99.90
10472;DHT22;5283;48.876;8.962;2023-10-31T02:14:26;9.70;99.90
10472;DHT22;5283;48.876;8.962;2023-10-31T02:16:53;9.60;99.90
10472;DHT22;5283;48.876;8.962;2023-10-31T02:19:21;9.60;99.90
10472;DHT22;5283;48.876;8.962;2023-10-31T02:21:47;9.60;99.90
10472;DHT22;5283;48.876;8.962;2023-10-31T02:24:14;9.60;99.90
10472;DHT22;5283;48.876;8.962;2023-10-31T02:26:41;9.60;99.90
10472;DHT22;5283;48.876;8.962;2023-10-31T02:29:08;9.60;99.90
10472;DHT22;5283;48.876;8.962;2023-10-31T02:31:34;9.50;99.90
10472;DHT22;5283;48.876;8.962;2023-10-31T02:34:01;9.40;99.90
10472;DHT22;5283;48.876;8.962;2023-10-31T02:36:28;9.40;99.90
10472;DHT22;5283;48.876;8.962;2023-10-31T02:38:55;9.40;99.90
10472;DHT22;5283;48.876;8.962;2023-10-31T02:41:22;9.30;99.90
10472;DHT22;5283;48.876;8.962;2023-10-31T02:43:50;9.30;99.90
10472;DHT22;5283;48.876;8.962;2023-10-31T02:46:17;9.20;99.90
10472;DHT22;5283;48.876;8.962;2023-10-31T02:48:44;9.10;99.90
10472;DHT22;5283;48.876;8.962;2023-10-31T02:51:11;9.00;99.90
10472;DHT22;5283;48.876;8.962;2023-10-31T02:53:37;9.00;99.90
10472;DHT22;5283;48.876;8.962;2023-10-31T02:56:04;9.00;99.90
10472;DHT22;5283;48.876;8.962;2023-10-31T02:58:31;8.90;99.90
10472;DHT22;5283;48.876;8.962;2023-10-31T03:00:58;8.90;99.90
10472;DHT22;5283;48.876;8.962;2023-10-31T03:03:25;8.90;99.90
10472;DHT22;5283;48.876;8.962;2023-10-31T03:05:51;8.80;99.90
10472;DHT22;5283;48.876;8.962;2023-10-31T03:08:18;8.70;99.90
10472;DHT22;5283;48.876;8.962;2023-10-31T03:10:48;8.70;99.90
10472;DHT22;5283;48.876;8.962;2023-10-31T03:13:17;8.80;99.90
10472;DHT22;5283;48.876;8.962;2023-10-31T03:15:45;9.00;99.90
10472;DHT22;5283;48.876;8.962;2023-10-31T03:18:11;9.00;99.90
10472;DHT22;5283;48.876;8.962;2023-10-31T03:20:38;9.10;99.90
10472;DHT22;5283;48.876;8.962;2023-10-31T03:23:05;9.20;99.90
10472;DHT22;5283;48.876;8.962;2023-10-31T03:25:32;9.20;99.90
10472;DHT22;5283;48.876;8.962;2023-10-31T03:27:58;9.20;99.90
10472;DHT22;5283;48.876;8.962;2023-10-31T03:30:26;9.20;99.90
10472;DHT22;5283;48.876;8.962;2023-10-31T03:32:52;9.30;99.90
10472;DHT22;5283;48.876;8.962;2023-10-31T03:35:19;9.30;99.90
10472;DHT22;5283;48.876;8.962;2023-10-31T03:37:46;9.40;99.90
10472;DHT22;5283;48.876;8.962;2023-10-31T03:40:12;9.50;99.90
10472;DHT22;5283;48.876;8.962;2023-10-31T03:42:39;9.60;99.90
10472;DHT22;5283;48.876;8.962;2023-10-31T03:45:06;9.70;99.90
10472;DHT22;5283;48.876;8.962;2023-10-31T03:47:33;9.80;99.90
10472;DHT22;5283;48.876;8.962;2023-10-31T03:50:00;9.90;99.90
10472;DHT22;5283;48.876;8.962;2023-10-31T03:52:27;10.00;99.90
10472;DHT22;5283;48.876;8.962;2023-10-31T03:54:53;10.00;99.90
10472;DHT22;5283;48.876;8.962;2023-10-31T03:57:21;10.00;99.90
10472;DHT22;5283;48.876;8.962;2023-10-31T03:59:47;10.00;99.90
10472;DHT22;5283;48.876;8.962;2023-10-31T04:02:14;10.00;99.90
10472;DHT22;5283;48.876;8.962;2023-10-31T04:04:41;10.10;99.90
10472;DHT22;5283;48.876;8.962;2023-10-31T04:07:08;10.00;99.90
10472;DHT22;5283;48.876;8.962;2023-10-31T04:09:34;9.90;99.90
10472;DHT22;5283;48.876;8.962;2023-10-31T04:12:01;9.90;99.90
10472;DHT22;5283;48.876;8.962;2023-10-31T04:14:28;10.00;99.90
10472;DHT22;5283;48.876;8.962;2023-10-31T04:16:54;10.00;99.90
10472;DHT22;5283;48.876;8.962;2023-10-31T04:19:21;9.90;99.90
10472;DHT22;5283;48.876;8.962;2023-10-31T04:21:48;9.80;99.90
10472;DHT22;5283;48.876;8.962;2023-10-31T04:24:14;9.70;99.90
10472;DHT22;5283;48.876;8.962;2023-10-31T04:26:41;9.60;99.90
10472;DHT22;5283;48.876;8.962;2023-10-31T04:29:08;9.60;99.90
10472;DHT22;5283;48.876;8.962;2023-10-31T04:31:35;9.50;99.90
10472;DHT22;5283;48.876;8.962;2023-10-31T04:34:04;9.40;99.90
10472;DHT22;5283;48.876;8.962;2023-10-31T04:36:30;9.30;99.90
10472;DHT22;5283;48.876;8.962;2023-10-31T04:38:58;9.30;99.90
10472;DHT22;5283;48.876;8.962;2023-10-31T04:41:25;9.30;99.90
10472;DHT22;5283;48.876;8.962;2023-10-31T04:43:51;9.50;99.90
10472;DHT22;5283;48.876;8.962;2023-10-31T04:46:18;9.60;99.90
10472;DHT22;5283;48.876;8.962;2023-10-31T04:48:45;9.60;99.90
10472;DHT22;5283;48.876;8.962;2023-10-31T04:51:11;9.60;99.90
10472;DHT22;5283;48.876;8.962;2023-10-31T04:53:38;9.50;99.90
10472;DHT22;5283;48.876;8.962;2023-10-31T04:56:15;9.30;99.90
10472;DHT22;5283;48.876;8.962;2023-10-31T04:58:42;9.30;99.90
10472;DHT22;5283;48.876;8.962;2023-10-31T05:01:10;9.10;99.90
10472;DHT22;5283;48.876;8.962;2023-10-31T05:03:37;9.00;99.90
10472;DHT22;5283;48.876;8.962;2023-10-31T05:06:05;8.90;99.90
10472;DHT22;5283;48.876;8.962;2023-10-31T05:08:32;8.80;99.90
10472;DHT22;5283;48.876;8.962;2023-10-31T05:10:59;8.70;99.90
10472;DHT22;5283;48.876;8.962;2023-10-31T05:13:25;8.60;99.90
10472;DHT22;5283;48.876;8.962;2023-10-31T05:15:52;8.50;99.90
10472;DHT22;5283;48.876;8.962;2023-10-31T05:18:19;8.40;99.90
10472;DHT22;5283;48.876;8.962;2023-10-31T05:20:46;8.40;99.90
10472;DHT22;5283;48.876;8.962;2023-10-31T05:23:13;8.40;99.90
10472;DHT22;5283;48.876;8.962;2023-10-31T05:25:40;8.40;99.90
10472;DHT22;5283;48.876;8.962;2023-10-31T05:28:07;8.30;99.90
10472;DHT22;5283;48.876;8.962;2023-10-31T05:30:33;8.30;99.90
10472;DHT22;5283;48.876;8.962;2023-10-31T05:33:00;8.40;99.90
10472;DHT22;5283;48.876;8.962;2023-10-31T05:35:27;8.40;99.90
10472;DHT22;5283;48.876;8.962;2023-10-31T05:37:53;8.40;99.90
10472;DHT22;5283;48.876;8.962;2023-10-31T05:40:20;8.50;99.90
10472;DHT22;5283;48.876;8.962;2023-10-31T05:42:51;8.40;99.90
10472;DHT22;5283;48.876;8.962;2023-10-31T05:45:17;8.40;99.90
10472;DHT22;5283;48.876;8.962;2023-10-31T05:47:44;8.40;99.90
10472;DHT22;5283;48.876;8.962;2023-10-31T05:50:11;8.40;99.90
10472;DHT22;5283;48.876;8.962;2023-10-31T05:52:37;8.30;99.90
10472;DHT22;5283;48.876;8.962;2023-10-31T05:55:05;8.30;99.90
10472;DHT22;5283;48.876;8.962;2023-10-31T05:57:31;8.30;99.90
10472;DHT22;5283;48.876;8.962;2023-10-31T05:59:58;8.30;99.90
10472;DHT22;5283;48.876;8.962;2023-10-31T06:02:25;8.30;99.90
10472;DHT22;5283;48.876;8.962;2023-10-31T06:04:52;8.30;99.90
10472;DHT22;5283;48.876;8.962;2023-10-31T06:07:18;8.30;99.90
10472;DHT22;5283;48.876;8.962;2023-10-31T06:09:45;8.20;99.90
10472;DHT22;5283;48.876;8.962;2023-10-31T06:12:12;8.10;99.90
10472;DHT22;5283;48.876;8.962;2023-10-31T06:14:38;8.10;99.90
10472;DHT22;5283;48.876;8.962;2023-10-31T06:17:05;8.10;99.90
10472;DHT22;5283;48.876;8.962;2023-10-31T06:19:36;8.30;99.90
10472;DHT22;5283;48.876;8.962;2023-10-31T06:22:03;8.50;99.90
10472;DHT22;5283;48.876;8.962;2023-10-31T06:24:30;8.60;99.90
10472;DHT22;5283;48.876;8.962;2023-10-31T06:26:57;9.00;99.90
10472;DHT22;5283;48.876;8.962;2023-10-31T06:29:23;9.10;99.90
10472;DHT22;5283;48.876;8.962;2023-10-31T06:32:01;9.40;99.90
10472;DHT22;5283;48.876;8.962;2023-10-31T06:34:28;9.70;99.90
10472;DHT22;5283;48.876;8.962;2023-10-31T06:36:54;9.80;99.90
10472;DHT22;5283;48.876;8.962;2023-10-31T06:39:21;9.70;99.90
10472;DHT22;5283;48.876;8.962;2023-10-31T06:41:49;9.60;99.90
10472;DHT22;5283;48.876;8.962;2023-10-31T06:44:16;9.60;99.90
10472;DHT22;5283;48.876;8.962;2023-10-31T06:46:42;9.60;99.90
10472;DHT22;5283;48.876;8.962;2023-10-31T06:49:09;9.50;99.90
10472;DHT22;5283;48.876;8.962;2023-10-31T06:51:36;9.50;99.90
10472;DHT22;5283;48.876;8.962;2023-10-31T06:54:02;9.50;99.90
10472;DHT22;5283;48.876;8.962;2023-10-31T06:56:29;9.50;99.90
10472;DHT22;5283;48.876;8.962;2023-10-31T06:58:56;9.60;99.90
10472;DHT22;5283;48.876;8.962;2023-10-31T07:01:22;9.70;99.90
10472;DHT22;5283;48.876;8.962;2023-10-31T07:03:49;9.70;99.90
10472;DHT22;5283;48.876;8.962;2023-10-31T07:06:16;9.80;99.90
10472;DHT22;5283;48.876;8.962;2023-10-31T07:08:43;9.90;99.90
10472;DHT22;5283;48.876;8.962;2023-10-31T07:11:10;10.00;99.90
10472;DHT22;5283;48.876;8.962;2023-10-31T07:13:37;10.10;99.90
10472;DHT22;5283;48.876;8.962;2023-10-31T07:16:05;10.20;99.90
10472;DHT22;5283;48.876;8.962;2023-10-31T07:18:31;10.30;99.90
10472;DHT22;5283;48.876;8.962;2023-10-31T07:20:58;10.30;99.90
10472;DHT22;5283;48.876;8.962;2023-10-31T07:23:25;10.40;99.90
10472;DHT22;5283;48.876;8.962;2023-10-31T07:25:51;10.50;99.90
10472;DHT22;5283;48.876;8.962;2023-10-31T07:28:18;10.50;99.90
10472;DHT22;5283;48.876;8.962;2023-10-31T07:30:45;10.60;99.90
10472;DHT22;5283;48.876;8.962;2023-10-31T07:33:12;10.70;99.90
10472;DHT22;5283;48.876;8.962;2023-10-31T07:35:39;10.70;99.90
10472;DHT22;5283;48.876;8.962;2023-10-31T07:38:05;10.80;99.90
10472;DHT22;5283;48.876;8.962;2023-10-31T07:40:32;11.00;99.90
10472;DHT22;5283;48.876;8.962;2023-10-31T07:42:59;11.00;99.90
10472;DHT22;5283;48.876;8.962;2023-10-31T07:45:26;11.00;99.90
10472;DHT22;5283;48.876;8.962;2023-10-31T07:47:53;11.00;99.90
10472;DHT22;5283;48.876;8.962;2023-10-31T07:50:20;11.10;99.90
10472;DHT22;5283;48.876;8.962;2023-10-31T07:52:46;11.20;99.90
10472;DHT22;5283;48.876;8.962;2023-10-31T07:55:14;11.40;99.90
10472;DHT22;5283;48.876;8.962;2023-10-31T07:57:41;11.50;99.90
10472;DHT22;5283;48.876;8.962;2023-10-31T08:00:11;11.60;99.90
10472;DHT22;5283;48.876;8.962;2023-10-31T08:02:38;11.70;99.90
10472;DHT22;5283;48.876;8.962;2023-10-31T08:05:06;11.70;99.90
10472;DHT22;5283;48.876;8.962;2023-10-31T08:07:33;11.80;99.90
10472;DHT22;5283;48.876;8.962;2023-10-31T08:10:00;11.90;99.90
10472;DHT22;5283;48.876;8.962;2023-10-31T08:12:27;12.00;99.90
10472;DHT22;5283;48.876;8.962;2023-10-31T08:14:54;12.00;99.90
10472;DHT22;5283;48.876;8.962;2023-10-31T08:17:20;12.10;99.90
10472;DHT22;5283;48.876;8.962;2023-10-31T08:19:47;12.10;99.90
10472;DHT22;5283;48.876;8.962;2023-10-31T08:22:14;12.10;99.90
10472;DHT22;5283;48.876;8.962;2023-10-31T08:24:40;12.10;99.90
10472;DHT22;5283;48.876;8.962;2023-10-31T08:27:07;12.00;99.90
10472;DHT22;5283;48.876;8.962;2023-10-31T08:29:34;11.90;99.90
10472;DHT22;5283;48.876;8.962;2023-10-31T08:32:00;12.00;99.90
10472;DHT22;5283;48.876;8.962;2023-10-31T08:34:27;12.10;99.90
10472;DHT22;5283;48.876;8.962;2023-10-31T08:36:54;12.20;99.90
10472;DHT22;5283;48.876;8.962;2023-10-31T08:39:22;11.90;99.90
10472;DHT22;5283;48.876;8.962;2023-10-31T08:41:51;11.90;99.90
10472;DHT22;5283;48.876;8.962;2023-10-31T08:44:18;12.00;99.90
10472;DHT22;5283;48.876;8.962;2023-10-31T08:46:45;12.00;99.90
10472;DHT22;5283;48.876;8.962;2023-10-31T08:49:12;11.90;99.90
10472;DHT22;5283;48.876;8.962;2023-10-31T08:51:39;11.90;99.90
10472;DHT22;5283;48.876;8.962;2023-10-31T08:54:06;11.90;99.90
10472;DHT22;5283;48.876;8.962;2023-10-31T08:56:33;12.00;99.90
10472;DHT22;5283;48.876;8.962;2023-10-31T08:59:00;12.10;99.90
10472;DHT22;5283;48.876;8.962;2023-10-31T09:01:27;12.00;99.90
10472;DHT22;5283;48.876;8.962;2023-10-31T09:03:55;12.00;99.90
10472;DHT22;5283;48.876;8.962;2023-10-31T09:06:22;12.20;99.90
10472;DHT22;5283;48.876;8.962;2023-10-31T09:08:49;12.00;99.90
10472;DHT22;5283;48.876;8.962;2023-10-31T09:11:16;12.10;99.90
10472;DHT22;5283;48.876;8.962;2023-10-31T09:13:43;12.30;99.90
10472;DHT22;5283;48.876;8.962;2023-10-31T09:16:09;12.30;99.90
10472;DHT22;5283;48.876;8.962;2023-10-31T09:18:36;12.30;99.90
10472;DHT22;5283;48.876;8.962;2023-10-31T09:21:03;12.20;99.90
10472;DHT22;5283;48.876;8.962;2023-10-31T09:23:30;12.20;99.90
10472;DHT22;5283;48.876;8.962;2023-10-31T09:25:57;12.30;99.90
10472;DHT22;5283;48.876;8.962;2023-10-31T09:28:25;12.40;99.90
10472;DHT22;5283;48.876;8.962;2023-10-31T09:30:51;12.50;99.90
10472;DHT22;5283;48.876;8.962;2023-10-31T09:33:18;12.50;99.90
10472;DHT22;5283;48.876;8.962;2023-10-31T09:35:45;12.40;99.90
10472;DHT22;5283;48.876;8.962;2023-10-31T09:38:12;12.40;99.90
10472;DHT22;5283;48.876;8.962;2023-10-31T09:40:39;12.50;99.90
10472;DHT22;5283;48.876;8.962;2023-10-31T09:43:05;12.60;99.90
10472;DHT22;5283;48.876;8.962;2023-10-31T09:45:32;12.50;99.90
10472;DHT22;5283;48.876;8.962;2023-10-31T09:48:00;12.60;99.90
10472;DHT22;5283;48.876;8.962;2023-10-31T09:50:29;12.60;99.90
10472;DHT22;5283;48.876;8.962;2023-10-31T09:52:56;12.80;99.90
10472;DHT22;5283;48.876;8.962;2023-10-31T09:55:24;13.00;99.90
10472;DHT22;5283;48.876;8.962;2023-10-31T09:57:51;12.90;99.90
10472;DHT22;5283;48.876;8.962;2023-10-31T10:00:18;12.80;99.90
10472;DHT22;5283;48.876;8.962;2023-10-31T10:02:45;12.70;99.90
10472;DHT22;5283;48.876;8.962;2023-10-31T10:05:14;12.80;99.90
10472;DHT22;5283;48.876;8.962;2023-10-31T10:07:42;12.90;99.90
10472;DHT22;5283;48.876;8.962;2023-10-31T10:10:13;13.00;99.90
10472;DHT22;5283;48.876;8.962;2023-10-31T10:12:42;12.80;99.90
10472;DHT22;5283;48.876;8.962;2023-10-31T10:15:11;12.80;99.90
10472;DHT22;5283;48.876;8.962;2023-10-31T10:17:38;12.90;99.90
10472;DHT22;5283;48.876;8.962;2023-10-31T10:20:07;13.00;99.90
10472;DHT22;5283;48.876;8.962;2023-10-31T10:22:42;13.00;99.90
10472;DHT22;5283;48.876;8.962;2023-10-31T10:25:16;13.00;99.90
10472;DHT22;5283;48.876;8.962;2023-10-31T10:27:45;13.10;99.90
10472;DHT22;5283;48.876;8.962;2023-10-31T10:30:13;13.10;99.90
10472;DHT22;5283;48.876;8.962;2023-10-31T10:32:40;13.20;99.90
10472;DHT22;5283;48.876;8.962;2023-10-31T10:35:07;13.30;99.90
10472;DHT22;5283;48.876;8.962;2023-10-31T10:37:37;13.20;99.90
10472;DHT22;5283;48.876;8.962;2023-10-31T10:40:06;13.20;99.90
10472;DHT22;5283;48.876;8.962;2023-10-31T10:42:37;13.30;99.90
10472;DHT22;5283;48.876;8.962;2023-10-31T10:45:08;13.40;99.90
10472;DHT22;5283;48.876;8.962;2023-10-31T10:47:39;13.50;99.90
10472;DHT22;5283;48.876;8.962;2023-10-31T10:50:08;13.40;99.90
10472;DHT22;5283;48.876;8.962;2023-10-31T10:52:38;13.40;99.90
10472;DHT22;5283;48.876;8.962;2023-10-31T10:55:21;13.40;99.90
10472;DHT22;5283;48.876;8.962;2023-10-31T11:00:29;13.10;99.90
10472;DHT22;5283;48.876;8.962;2023-10-31T11:02:56;13.20;99.90
10472;DHT22;5283;48.876;8.962;2023-10-31T11:05:24;13.30;99.90
10472;DHT22;5283;48.876;8.962;2023-10-31T11:07:52;13.40;99.90
10472;DHT22;5283;48.876;8.962;2023-10-31T11:10:19;13.40;99.90
10472;DHT22;5283;48.876;8.962;2023-10-31T11:12:45;13.40;99.90
10472;DHT22;5283;48.876;8.962;2023-10-31T11:15:15;13.30;99.90
10472;DHT22;5283;48.876;8.962;2023-10-31T11:17:44;13.40;99.90
10472;DHT22;5283;48.876;8.962;2023-10-31T11:20:13;13.30;99.90
10472;DHT22;5283;48.876;8.962;2023-10-31T11:22:44;13.30;99.90
10472;DHT22;5283;48.876;8.962;2023-10-31T11:25:18;13.20;99.90
10472;DHT22;5283;48.876;8.962;2023-10-31T11:27:52;13.40;99.90
10472;DHT22;5283;48.876;8.962;2023-10-31T11:30:25;13.60;99.90
10472;DHT22;5283;48.876;8.962;2023-10-31T11:32:52;13.70;99.90
10472;DHT22;5283;48.876;8.962;2023-10-31T11:35:19;13.60;99.90
10472;DHT22;5283;48.876;8.962;2023-10-31T11:37:48;13.60;99.90
10472;DHT22;5283;48.876;8.962;2023-10-31T11:40:17;13.50;99.90
10472;DHT22;5283;48.876;8.962;2023-10-31T11:42:53;13.50;99.90
10472;DHT22;5283;48.876;8.962;2023-10-31T11:45:34;13.30;99.90
10472;DHT22;5283;48.876;8.962;2023-10-31T11:48:02;13.20;99.90
10472;DHT22;5283;48.876;8.962;2023-10-31T11:50:32;13.30;99.90
10472;DHT22;5283;48.876;8.962;2023-10-31T11:53:10;13.30;99.90
10472;DHT22;5283;48.876;8.962;2023-10-31T11:55:41;13.30;99.90
10472;DHT22;5283;48.876;8.962;2023-10-31T11:58:24;13.30;99.90
10472;DHT22;5283;48.876;8.962;2023-10-31T12:01:04;13.40;99.90
10472;DHT22;5283;48.876;8.962;2023-10-31T12:03:42;13.50;99.90
10472;DHT22;5283;48.876;8.962;2023-10-31T12:06:10;13.80;99.90
10472;DHT22;5283;48.876;8.962;2023-10-31T12:08:38;14.10;99.90
10472;DHT22;5283;48.876;8.962;2023-10-31T12:11:06;14.40;99.90
10472;DHT22;5283;48.876;8.962;2023-10-31T12:13:34;14.30;99.90
10472;DHT22;5283;48.876;8.962;2023-10-31T12:16:01;14.20;99.90
10472;DHT22;5283;48.876;8.962;2023-10-31T12:18:28;13.90;99.90
10472;DHT22;5283;48.876;8.962;2023-10-31T12:20:55;13.90;99.90
10472;DHT22;5283;48.876;8.962;2023-10-31T12:23:22;13.70;99.90
10472;DHT22;5283;48.876;8.962;2023-10-31T12:28:20;13.60;99.90
10472;DHT22;5283;48.876;8.962;2023-10-31T12:30:50;13.50;99.90
10472;DHT22;5283;48.876;8.962;2023-10-31T12:33:17;13.40;99.90
10472;DHT22;5283;48.876;8.962;2023-10-31T12:35:44;13.30;99.90
10472;DHT22;5283;48.876;8.962;2023-10-31T12:38:12;13.30;99.90
10472;DHT22;5283;48.876;8.962;2023-10-31T12:40:46;13.20;99.90
10472;DHT22;5283;48.876;8.962;2023-10-31T12:43:12;13.20;99.90
10472;DHT22;5283;48.876;8.962;2023-10-31T12:45:39;13.10;99.90
10472;DHT22;5283;48.876;8.962;2023-10-31T12:48:08;13.20;99.90
10472;DHT22;5283;48.876;8.962;2023-10-31T12:50:36;13.10;99.90
10472;DHT22;5283;48.876;8.962;2023-10-31T12:53:04;13.00;99.90
10472;DHT22;5283;48.876;8.962;2023-10-31T12:55:38;13.10;99.90
10472;DHT22;5283;48.876;8.962;2023-10-31T12:58:06;13.20;99.90
10472;DHT22;5283;48.876;8.962;2023-10-31T13:00:34;13.50;99.90
10472;DHT22;5283;48.876;8.962;2023-10-31T13:03:02;13.90;99.90
10472;DHT22;5283;48.876;8.962;2023-10-31T13:05:30;14.00;99.90
10472;DHT22;5283;48.876;8.962;2023-10-31T13:07:57;13.80;99.90
10472;DHT22;5283;48.876;8.962;2023-10-31T13:10:27;13.60;99.90
10472;DHT22;5283;48.876;8.962;2023-10-31T13:12:55;13.60;99.90
10472;DHT22;5283;48.876;8.962;2023-10-31T13:15:23;13.60;99.90
10472;DHT22;5283;48.876;8.962;2023-10-31T13:17:51;13.60;99.90
10472;DHT22;5283;48.876;8.962;2023-10-31T13:20:19;13.50;99.90
10472;DHT22;5283;48.876;8.962;2023-10-31T13:22:46;13.60;99.90
10472;DHT22;5283;48.876;8.962;2023-10-31T13:25:14;13.50;99.90
10472;DHT22;5283;48.876;8.962;2023-10-31T13:27:45;13.40;99.90
10472;DHT22;5283;48.876;8.962;2023-10-31T13:30:17;13.40;99.90
10472;DHT22;5283;48.876;8.962;2023-10-31T13:32:44;13.50;99.90
10472;DHT22;5283;48.876;8.962;2023-10-31T13:35:12;13.40;99.90
10472;DHT22;5283;48.876;8.962;2023-10-31T13:37:40;13.30;99.90
10472;DHT22;5283;48.876;8.962;2023-10-31T13:40:07;13.30;99.90
10472;DHT22;5283;48.876;8.962;2023-10-31T13:42:35;13.30;99.90
10472;DHT22;5283;48.876;8.962;2023-10-31T13:45:03;13.30;99.90
10472;DHT22;5283;48.876;8.962;2023-10-31T13:47:31;13.40;99.90
10472;DHT22;5283;48.876;8.962;2023-10-31T13:49:58;13.30;99.90
10472;DHT22;5283;48.876;8.962;2023-10-31T13:52:25;13.30;99.90
10472;DHT22;5283;48.876;8.962;2023-10-31T13:54:52;13.40;99.90
10472;DHT22;5283;48.876;8.962;2023-10-31T13:57:19;13.50;99.90
10472;DHT22;5283;48.876;8.962;2023-10-31T13:59:45;13.50;99.90
10472;DHT22;5283;48.876;8.962;2023-10-31T14:02:12;13.50;99.90
10472;DHT22;5283;48.876;8.962;2023-10-31T14:04:39;13.60;99.90
10472;DHT22;5283;48.876;8.962;2023-10-31T14:07:06;13.60;99.90
10472;DHT22;5283;48.876;8.962;2023-10-31T14:09:33;13.60;99.90
10472;DHT22;5283;48.876;8.962;2023-10-31T14:12:00;13.60;99.90
10472;DHT22;5283;48.876;8.962;2023-10-31T14:14:26;13.60;99.90
10472;DHT22;5283;48.876;8.962;2023-10-31T14:16:53;13.50;99.90
10472;DHT22;5283;48.876;8.962;2023-10-31T14:19:20;13.40;99.90
10472;DHT22;5283;48.876;8.962;2023-10-31T14:21:47;13.30;99.90
10472;DHT22;5283;48.876;8.962;2023-10-31T14:24:13;13.30;99.90
10472;DHT22;5283;48.876;8.962;2023-10-31T14:26:40;13.20;99.90
10472;DHT22;5283;48.876;8.962;2023-10-31T14:29:10;13.10;99.90
10472;DHT22;5283;48.876;8.962;2023-10-31T14:31:41;13.10;99.90
10472;DHT22;5283;48.876;8.962;2023-10-31T14:34:08;13.00;99.90
10472;DHT22;5283;48.876;8.962;2023-10-31T14:36:35;12.80;99.90
10472;DHT22;5283;48.876;8.962;2023-10-31T14:39:02;12.70;99.90
10472;DHT22;5283;48.876;8.962;2023-10-31T14:41:29;12.60;99.90
10472;DHT22;5283;48.876;8.962;2023-10-31T14:44:00;12.60;99.90
10472;DHT22;5283;48.876;8.962;2023-10-31T14:46:29;12.50;99.90
10472;DHT22;5283;48.876;8.962;2023-10-31T14:48:55;12.40;99.90
10472;DHT22;5283;48.876;8.962;2023-10-31T14:51:22;12.40;99.90
10472;DHT22;5283;48.876;8.962;2023-10-31T14:53:49;12.40;99.90
10472;DHT22;5283;48.876;8.962;2023-10-31T14:56:16;12.30;99.90
10472;DHT22;5283;48.876;8.962;2023-10-31T14:58:43;12.40;99.90
10472;DHT22;5283;48.876;8.962;2023-10-31T15:01:09;12.30;99.90
10472;DHT22;5283;48.876;8.962;2023-10-31T15:03:36;12.40;99.90
10472;DHT22;5283;48.876;8.962;2023-10-31T15:06:03;12.30;99.90
10472;DHT22;5283;48.876;8.962;2023-10-31T15:08:31;12.30;99.90
10472;DHT22;5283;48.876;8.962;2023-10-31T15:10:58;12.20;99.90
10472;DHT22;5283;48.876;8.962;2023-10-31T15:13:26;12.20;99.90
10472;DHT22;5283;48.876;8.962;2023-10-31T15:15:53;12.10;99.90
10472;DHT22;5283;48.876;8.962;2023-10-31T15:18:19;12.00;99.90
10472;DHT22;5283;48.876;8.962;2023-10-31T15:20:46;11.70;99.90
10472;DHT22;5283;48.876;8.962;2023-10-31T15:23:13;11.60;99.90
10472;DHT22;5283;48.876;8.962;2023-10-31T15:25:41;11.50;99.90
10472;DHT22;5283;48.876;8.962;2023-10-31T15:28:08;11.40;99.90
10472;DHT22;5283;48.876;8.962;2023-10-31T15:30:34;11.30;99.90
10472;DHT22;5283;48.876;8.962;2023-10-31T15:33:02;11.20;99.90
10472;DHT22;5283;48.876;8.962;2023-10-31T15:35:28;11.10;99.90
10472;DHT22;5283;48.876;8.962;2023-10-31T15:37:55;11.00;99.90
10472;DHT22;5283;48.876;8.962;2023-10-31T15:40:22;11.00;99.90
10472;DHT22;5283;48.876;8.962;2023-10-31T15:42:48;11.00;99.90
10472;DHT22;5283;48.876;8.962;2023-10-31T15:45:15;10.90;99.90
10472;DHT22;5283;48.876;8.962;2023-10-31T15:47:42;10.90;99.90
10472;DHT22;5283;48.876;8.962;2023-10-31T15:50:08;10.80;99.90
10472;DHT22;5283;48.876;8.962;2023-10-31T15:52:36;10.70;99.90
10472;DHT22;5283;48.876;8.962;2023-10-31T15:55:03;10.60;99.90
10472;DHT22;5283;48.876;8.962;2023-10-31T15:57:30;10.50;99.90
10472;DHT22;5283;48.876;8.962;2023-10-31T15:59:56;10.50;99.90